Time;durP1;ratioP1;P1;durP2;ratioP2;P2;SDS_P1;SDS_P2;PMS_P1;PMS_P2;Temp;Humidity;BMP_temperature;BMP_pressure;BME280_temperature;BME280_humidity;BME280_pressure;Samples;Min_cycle;Max_cycle;Signal;HPM_P1;HPM_P2
2022/07/28 00:00:25;;;;;;;2.80;2.50;;;22.80;27.20;;;;;;10467134;28;20224;-76
2022/07/28 00:05:28;;;;;;;2.37;2.17;;;22.70;27.80;;;;;;10465932;28;20231;-75
2022/07/28 00:10:33;;;;;;;3.60;2.43;;;22.70;27.20;;;;;;10463588;28;20220;-76
2022/07/28 00:15:38;;;;;;;2.60;2.40;;;22.70;27.10;;;;;;10464964;28;20752;-76
2022/07/28 00:20:41;;;;;;;2.10;2.00;;;22.60;27.50;;;;;;10463101;28;21178;-76
2022/07/28 00:25:44;;;;;;;2.40;2.30;;;22.50;27.00;;;;;;10466527;28;20220;-76
2022/07/28 00:30:49;;;;;;;2.93;2.73;;;22.50;27.30;;;;;;10473087;28;20240;-76
2022/07/28 00:35:52;;;;;;;2.70;2.60;;;22.40;28.00;;;;;;10472547;28;20898;-76
2022/07/28 00:41:11;;;;;;;2.90;2.70;;;22.30;27.60;;;;;;10470945;28;20216;-75
2022/07/28 00:46:18;;;;;;;3.23;3.00;;;22.30;27.90;;;;;;10471286;28;20233;-76
2022/07/28 00:51:26;;;;;;;3.23;2.93;;;22.10;28.50;;;;;;10474807;28;20934;-76
2022/07/28 00:56:29;;;;;;;2.93;2.60;;;22.00;28.80;;;;;;10472073;28;20232;-76
2022/07/28 01:01:34;;;;;;;3.10;2.90;;;21.90;27.90;;;;;;10471402;28;20345;-76
2022/07/28 01:06:52;;;;;;;3.00;2.80;;;21.80;28.70;;;;;;10474939;28;20232;-76
2022/07/28 01:12:01;;;;;;;2.97;2.77;;;21.70;29.10;;;;;;10465554;28;20315;-76
2022/07/28 01:17:11;;;;;;;2.80;2.60;;;21.70;29.00;;;;;;10466490;28;20944;-76
2022/07/28 01:22:22;;;;;;;4.43;2.97;;;21.60;29.20;;;;;;10468476;28;20224;-76
2022/07/28 01:27:45;;;;;;;3.07;2.80;;;21.60;29.40;;;;;;10469842;28;20615;-76
2022/07/28 01:32:56;;;;;;;2.60;2.40;;;21.50;29.30;;;;;;10470424;28;20235;-75
2022/07/28 01:38:03;;;;;;;2.90;2.70;;;21.50;29.50;;;;;;10470369;28;20743;-76
2022/07/28 01:43:11;;;;;;;3.20;2.90;;;21.50;29.30;;;;;;10472546;28;20695;-75
2022/07/28 01:48:19;;;;;;;3.57;3.00;;;21.50;29.20;;;;;;10470255;28;20224;-76
2022/07/28 01:53:24;;;;;;;2.80;2.60;;;21.40;29.40;;;;;;10469407;28;20232;-73
2022/07/28 01:58:30;;;;;;;3.73;3.10;;;21.40;29.00;;;;;;10460529;28;20228;-73
2022/07/28 02:03:36;;;;;;;3.00;2.80;;;21.40;29.40;;;;;;10468688;28;20254;-73
2022/07/28 02:08:40;;;;;;;3.30;3.00;;;21.30;29.40;;;;;;10459080;28;20866;-73
2022/07/28 02:13:45;;;;;;;3.97;3.27;;;21.30;29.20;;;;;;10463762;28;20248;-73
2022/07/28 02:18:51;;;;;;;2.77;2.57;;;21.30;29.50;;;;;;10466114;28;20239;-73
2022/07/28 02:23:56;;;;;;;3.20;2.90;;;21.20;29.70;;;;;;10465601;28;20810;-73
2022/07/28 02:29:03;;;;;;;3.33;3.07;;;21.20;29.40;;;;;;10466110;28;20622;-73
2022/07/28 02:34:10;;;;;;;3.10;2.80;;;21.20;29.80;;;;;;10464594;28;20228;-73
2022/07/28 02:39:20;;;;;;;3.07;2.87;;;21.10;29.80;;;;;;10456587;28;20303;-73
2022/07/28 02:44:35;;;;;;;3.47;3.17;;;21.00;29.90;;;;;;10462815;28;20229;-73
2022/07/28 02:49:43;;;;;;;3.33;3.03;;;20.90;30.30;;;;;;10464008;28;20228;-73
2022/07/28 02:54:47;;;;;;;3.37;3.07;;;20.90;30.20;;;;;;10465787;28;20235;-73
2022/07/28 02:59:51;;;;;;;4.17;3.40;;;20.80;29.60;;;;;;10458817;28;20232;-73
2022/07/28 03:04:57;;;;;;;3.60;3.30;;;20.80;29.90;;;;;;10459290;28;20608;-73
2022/07/28 03:10:02;;;;;;;3.37;3.17;;;20.70;30.20;;;;;;10457485;28;21073;-73
2022/07/28 03:15:06;;;;;;;3.20;2.93;;;20.70;29.70;;;;;;10451316;28;20735;-73
2022/07/28 03:20:12;;;;;;;6.13;3.17;;;20.60;29.80;;;;;;10454678;28;20771;-73
2022/07/28 03:25:19;;;;;;;3.10;2.90;;;20.50;30.30;;;;;;10453243;28;20228;-72
2022/07/28 03:30:27;;;;;;;3.33;3.10;;;20.50;30.20;;;;;;10452490;28;20248;-72
2022/07/28 03:35:34;;;;;;;4.00;3.70;;;20.40;30.40;;;;;;10450293;28;20259;-72
2022/07/28 03:40:38;;;;;;;3.43;3.13;;;20.40;30.70;;;;;;10455315;28;20220;-72
2022/07/28 03:45:42;;;;;;;3.47;3.23;;;20.30;30.20;;;;;;10451578;28;20740;-73
2022/07/28 03:50:50;;;;;;;4.03;3.63;;;20.20;30.10;;;;;;10449800;28;20307;-72
2022/07/28 03:55:54;;;;;;;3.73;3.40;;;20.10;30.50;;;;;;10453648;28;20756;-72
2022/07/28 04:00:58;;;;;;;3.87;3.50;;;20.10;30.30;;;;;;10447273;28;20220;-73
2022/07/28 04:06:03;;;;;;;3.67;3.37;;;20.10;30.80;;;;;;10449491;28;20748;-72
2022/07/28 04:11:06;;;;;;;3.93;3.63;;;20.10;31.00;;;;;;10452492;28;20262;-76
2022/07/28 04:16:09;;;;;;;4.37;3.37;;;20.10;30.80;;;;;;10462064;28;20282;-76
2022/07/28 04:21:14;;;;;;;3.67;3.37;;;20.10;30.80;;;;;;10456899;28;20229;-76
2022/07/28 04:26:17;;;;;;;3.93;3.63;;;20.00;31.20;;;;;;10456245;28;20594;-76
2022/07/28 04:31:20;;;;;;;4.00;3.70;;;20.00;30.90;;;;;;10454156;28;20224;-76
2022/07/28 04:36:25;;;;;;;4.20;3.50;;;20.00;31.00;;;;;;10451768;28;20232;-76
2022/07/28 04:41:29;;;;;;;3.77;3.47;;;20.00;31.60;;;;;;10458074;28;20231;-75
2022/07/28 04:46:33;;;;;;;4.93;3.77;;;20.00;31.30;;;;;;10457981;28;20382;-76
2022/07/28 04:51:38;;;;;;;4.07;3.70;;;20.00;31.30;;;;;;10460741;28;20703;-75
2022/07/28 04:56:41;;;;;;;4.93;4.10;;;20.00;31.80;;;;;;10461346;28;20233;-75
2022/07/28 05:01:44;;;;;;;5.77;4.90;;;20.00;31.70;;;;;;10465778;28;20251;-75
2022/07/28 05:06:49;;;;;;;4.63;4.23;;;20.00;31.80;;;;;;10456342;28;20255;-74
2022/07/28 05:11:53;;;;;;;5.13;4.20;;;20.10;32.60;;;;;;10467984;28;20224;-71
2022/07/28 05:16:56;;;;;;;5.60;5.07;;;20.10;32.30;;;;;;10469960;28;20233;-75
2022/07/28 05:22:01;;;;;;;6.27;5.67;;;20.20;32.70;;;;;;10468538;28;20220;-75
2022/07/28 05:27:04;;;;;;;5.57;5.13;;;20.20;33.40;;;;;;10463498;28;20224;-75
2022/07/28 05:32:08;;;;;;;6.37;5.80;;;20.40;33.00;;;;;;10474197;28;20224;-76
2022/07/28 05:37:21;;;;;;;7.37;5.97;;;20.50;33.20;;;;;;10472072;28;20570;-76
2022/07/28 05:42:25;;;;;;;6.70;6.10;;;20.70;33.90;;;;;;10470199;28;20221;-76
2022/07/28 05:47:28;;;;;;;7.13;6.53;;;20.80;33.20;;;;;;10475113;28;20224;-75
2022/07/28 05:52:33;;;;;;;7.70;6.90;;;20.90;33.30;;;;;;10469966;28;20592;-76
2022/07/28 05:57:37;;;;;;;9.33;7.37;;;21.00;33.70;;;;;;10475546;28;20232;-76
2022/07/28 06:02:40;;;;;;;7.53;6.77;;;21.10;33.50;;;;;;10473984;28;20670;-76
2022/07/28 06:07:46;;;;;;;7.60;6.83;;;21.20;33.50;;;;;;10477391;28;20583;-76
2022/07/28 06:12:51;;;;;;;7.53;6.83;;;21.30;34.10;;;;;;10478343;28;20688;-76
2022/07/28 06:17:55;;;;;;;7.97;7.27;;;21.40;33.70;;;;;;10475112;28;20793;-76
2022/07/28 06:23:00;;;;;;;8.00;7.30;;;21.50;33.80;;;;;;10474011;28;20213;-76
2022/07/28 06:28:03;;;;;;;7.23;6.53;;;21.70;34.00;;;;;;10471989;28;20224;-75
2022/07/28 06:33:06;;;;;;;7.43;6.77;;;21.80;33.40;;;;;;10471710;28;20228;-76
2022/07/28 06:38:11;;;;;;;7.43;6.60;;;21.90;33.40;;;;;;10476786;28;20224;-76
2022/07/28 06:43:14;;;;;;;6.73;6.00;;;22.10;34.50;;;;;;10477332;28;20212;-76
2022/07/28 06:48:18;;;;;;;6.27;5.67;;;22.20;33.40;;;;;;10475741;28;20877;-75
2022/07/28 06:53:23;;;;;;;5.27;4.77;;;22.40;33.60;;;;;;10467185;28;20235;-72
2022/07/28 06:58:28;;;;;;;5.20;4.80;;;22.50;33.90;;;;;;10466599;28;20238;-72
2022/07/28 07:03:31;;;;;;;5.57;4.90;;;22.70;33.50;;;;;;10461746;28;20221;-71
2022/07/28 07:08:35;;;;;;;4.53;4.17;;;22.90;33.50;;;;;;10462740;28;20239;-71
2022/07/28 07:13:38;;;;;;;5.40;4.90;;;23.00;33.50;;;;;;10463748;28;20224;-71
2022/07/28 07:18:42;;;;;;;5.13;4.73;;;23.20;33.30;;;;;;10458056;28;20247;-71
2022/07/28 07:23:46;;;;;;;5.30;4.83;;;23.40;33.20;;;;;;10465257;28;20620;-71
2022/07/28 07:28:49;;;;;;;5.43;5.03;;;23.50;33.90;;;;;;10466836;28;20228;-72
2022/07/28 07:33:53;;;;;;;4.77;4.37;;;23.70;33.00;;;;;;10468284;28;20739;-71
2022/07/28 07:38:57;;;;;;;5.00;4.60;;;23.80;33.00;;;;;;10466498;28;20229;-71
2022/07/28 07:44:01;;;;;;;5.60;5.10;;;23.90;33.00;;;;;;10460406;28;20221;-73
2022/07/28 07:49:04;;;;;;;5.27;4.80;;;24.10;32.70;;;;;;10458014;28;20236;-70
2022/07/28 07:54:09;;;;;;;5.07;4.57;;;24.30;32.70;;;;;;10457488;28;20233;-71
2022/07/28 07:59:12;;;;;;;5.40;4.90;;;24.50;32.50;;;;;;10450034;28;20233;-70
2022/07/28 08:04:15;;;;;;;5.23;4.83;;;24.70;32.40;;;;;;10451468;28;20216;-70
2022/07/28 08:09:20;;;;;;;5.87;4.93;;;24.90;32.10;;;;;;10449696;28;20251;-70
2022/07/28 08:14:24;;;;;;;5.57;5.07;;;25.10;31.80;;;;;;10449605;28;20251;-70
2022/07/28 08:19:27;;;;;;;5.37;4.87;;;25.30;31.80;;;;;;10449309;28;20592;-70
2022/07/28 08:24:31;;;;;;;5.30;4.87;;;25.40;31.60;;;;;;10449041;28;20901;-70
2022/07/28 08:29:36;;;;;;;4.70;4.30;;;25.60;31.10;;;;;;10448816;28;20840;-72
2022/07/28 08:34:39;;;;;;;5.63;5.00;;;25.70;31.20;;;;;;10445515;28;20232;-72
2022/07/28 08:39:44;;;;;;;4.47;4.07;;;25.90;30.90;;;;;;10447214;28;20391;-70
2022/07/28 08:44:52;;;;;;;5.00;4.60;;;26.00;30.40;;;;;;10448715;28;20224;-70
2022/07/28 08:49:58;;;;;;;4.57;4.17;;;26.20;30.00;;;;;;10452132;28;20232;-70
2022/07/28 08:55:05;;;;;;;5.63;4.40;;;26.40;30.00;;;;;;10459869;28;20232;-70
2022/07/28 09:00:10;;;;;;;5.57;4.20;;;26.50;29.50;;;;;;10464047;28;20216;-70
2022/07/28 09:05:14;;;;;;;4.07;3.67;;;26.80;29.60;;;;;;10457826;28;20231;-70
2022/07/28 09:10:19;;;;;;;3.90;3.60;;;27.00;29.70;;;;;;10459991;28;20246;-70
2022/07/28 09:15:22;;;;;;;3.90;3.60;;;27.10;29.30;;;;;;10459303;28;20597;-70
2022/07/28 09:20:28;;;;;;;3.80;3.50;;;27.40;29.30;;;;;;10460411;28;20236;-75
2022/07/28 09:25:34;;;;;;;3.60;3.30;;;27.50;28.80;;;;;;10469816;28;20720;-75
2022/07/28 09:30:39;;;;;;;3.63;3.33;;;27.70;28.30;;;;;;10470735;28;20297;-75
2022/07/28 09:35:58;;;;;;;3.80;3.20;;;27.90;28.50;;;;;;10463789;28;20224;-75
2022/07/28 09:41:06;;;;;;;4.30;3.90;;;28.10;28.20;;;;;;10469390;28;20227;-75
2022/07/28 09:46:11;;;;;;;5.23;3.50;;;28.30;28.00;;;;;;10462083;28;20247;-75
2022/07/28 09:51:16;;;;;;;3.80;3.50;;;28.50;27.90;;;;;;10467428;28;20223;-75
2022/07/28 09:56:22;;;;;;;3.70;3.50;;;28.70;27.70;;;;;;10465364;28;20232;-75
2022/07/28 10:01:26;;;;;;;3.30;3.00;;;28.80;27.10;;;;;;10463111;28;20582;-75
2022/07/28 10:06:39;;;;;;;3.63;3.33;;;29.00;27.20;;;;;;10466575;28;20232;-76
2022/07/28 10:11:44;;;;;;;3.73;3.17;;;29.10;27.00;;;;;;10468668;28;20746;-75
2022/07/28 10:16:51;;;;;;;3.37;3.07;;;29.30;26.10;;;;;;10466492;28;20232;-75
2022/07/28 10:21:56;;;;;;;3.00;2.80;;;29.40;26.30;;;;;;10463876;28;20243;-75
2022/07/28 10:27:03;;;;;;;3.47;3.17;;;29.40;26.20;;;;;;10464315;28;20342;-75
2022/07/28 10:32:07;;;;;;;3.60;3.10;;;29.60;25.60;;;;;;10464142;28;20687;-75
2022/07/28 10:37:18;;;;;;;4.73;2.80;;;29.60;25.60;;;;;;10462363;28;20730;-74
2022/07/28 10:42:24;;;;;;;3.40;3.10;;;29.80;24.90;;;;;;10455192;28;20259;-71
2022/07/28 10:47:28;;;;;;;3.80;3.10;;;29.90;24.70;;;;;;10455506;28;20237;-71
2022/07/28 10:52:41;;;;;;;4.03;3.00;;;30.00;24.80;;;;;;10458206;28;20220;-70
2022/07/28 10:58:07;;;;;;;2.93;2.73;;;30.10;24.10;;;;;;10454415;28;20225;-75
2022/07/28 11:03:36;;;;;;;5.63;2.90;;;30.20;23.80;;;;;;10453995;28;20303;-75
2022/07/28 11:08:39;;;;;;;3.33;3.10;;;30.30;23.60;;;;;;10453258;28;20728;-75
2022/07/28 11:13:44;;;;;;;4.53;3.13;;;30.40;24.10;;;;;;10455776;28;20227;-75
2022/07/28 11:19:06;;;;;;;3.10;2.73;;;30.40;23.20;;;;;;10452171;28;20217;-75
2022/07/28 11:25:05;;;;;;;3.27;2.97;;;30.50;23.40;;;;;;10455741;28;20232;-75
2022/07/28 11:30:52;;;;;;;3.40;3.10;;;30.60;23.60;;;;;;10456596;28;20810;-75
2022/07/28 11:35:57;;;;;;;3.40;2.70;;;30.70;23.00;;;;;;10458966;28;21021;-75
2022/07/28 11:41:01;;;;;;;2.93;2.57;;;30.90;22.90;;;;;;10472830;28;20224;-75
2022/07/28 11:46:33;;;;;;;2.70;2.50;;;30.90;22.70;;;;;;10470434;28;20220;-75
2022/07/28 11:51:40;;;;;;;2.93;2.70;;;31.00;22.30;;;;;;10474149;28;20224;-76
2022/07/28 11:56:58;;;;;;;2.77;2.60;;;31.00;22.00;;;;;;10470059;28;20689;-75
2022/07/28 12:02:02;;;;;;;3.63;3.00;;;31.00;21.40;;;;;;10476021;28;20595;-75
2022/07/28 12:07:07;;;;;;;3.13;2.60;;;31.00;21.70;;;;;;10468538;28;20311;-75
2022/07/28 12:12:11;;;;;;;2.80;2.60;;;31.10;21.70;;;;;;10472406;28;20217;-76
2022/07/28 12:17:16;;;;;;;2.70;2.50;;;31.20;21.70;;;;;;10470120;28;20235;-76
2022/07/28 12:22:20;;;;;;;2.60;2.40;;;31.20;21.70;;;;;;10474491;28;20216;-76
2022/07/28 12:27:28;;;;;;;2.80;2.60;;;31.30;21.20;;;;;;10472853;28;20255;-76
2022/07/28 12:32:36;;;;;;;2.70;2.50;;;31.40;21.10;;;;;;10465625;28;20232;-73
2022/07/28 12:37:41;;;;;;;2.87;2.60;;;31.50;19.90;;;;;;10433514;28;20224;-73
2022/07/28 12:42:45;;;;;;;2.80;2.60;;;31.50;20.40;;;;;;10432305;28;20216;-73
2022/07/28 12:47:55;;;;;;;3.03;2.33;;;31.50;20.30;;;;;;10440290;28;20231;-73
2022/07/28 12:53:03;;;;;;;2.50;2.30;;;31.50;19.60;;;;;;10436791;28;20239;-73
2022/07/28 12:58:07;;;;;;;2.40;2.20;;;31.60;19.10;;;;;;10439852;28;20221;-73
2022/07/28 13:03:23;;;;;;;3.60;2.50;;;31.60;19.70;;;;;;10445090;28;20759;-73
2022/07/28 13:08:27;;;;;;;2.90;2.37;;;31.60;19.10;;;;;;10438841;28;20235;-73
2022/07/28 13:13:44;;;;;;;3.80;2.47;;;31.70;20.00;;;;;;10436842;28;20255;-71
2022/07/28 13:18:52;;;;;;;2.40;2.20;;;31.70;19.50;;;;;;10441059;28;20774;-71
2022/07/28 13:23:56;;;;;;;2.73;2.60;;;31.70;18.90;;;;;;10437158;28;20246;-70
2022/07/28 13:29:02;;;;;;;2.60;2.50;;;31.80;19.60;;;;;;10438533;28;20229;-70
2022/07/28 13:34:16;;;;;;;2.50;2.30;;;31.80;18.70;;;;;;10444350;28;20236;-70
2022/07/28 13:39:20;;;;;;;2.60;2.40;;;31.90;18.90;;;;;;10444092;28;20232;-70
2022/07/28 13:44:23;;;;;;;3.23;2.40;;;31.90;19.10;;;;;;10451631;28;20235;-72
2022/07/28 13:49:28;;;;;;;4.10;2.63;;;31.90;19.10;;;;;;10452510;28;20232;-72
2022/07/28 13:54:32;;;;;;;2.63;2.43;;;31.80;18.80;;;;;;10455061;28;20375;-72
2022/07/28 13:59:43;;;;;;;2.43;2.30;;;31.80;19.10;;;;;;10459795;28;20228;-72
2022/07/28 14:04:48;;;;;;;2.43;2.23;;;31.90;18.90;;;;;;10452340;28;20552;-73
2022/07/28 14:09:52;;;;;;;2.80;2.60;;;32.00;18.70;;;;;;10455204;28;20298;-72
2022/07/28 14:14:56;;;;;;;2.60;2.40;;;32.00;18.70;;;;;;10451213;28;20311;-72
2022/07/28 14:20:00;;;;;;;2.57;2.37;;;32.00;18.60;;;;;;10456615;28;20232;-75
2022/07/28 14:25:04;;;;;;;4.20;2.40;;;32.00;18.10;;;;;;10451834;28;20263;-74
2022/07/28 14:30:08;;;;;;;3.57;2.60;;;32.10;18.50;;;;;;10451696;28;20236;-74
2022/07/28 14:35:13;;;;;;;2.73;2.53;;;32.10;18.20;;;;;;10449740;28;20316;-75
2022/07/28 14:40:17;;;;;;;2.70;2.50;;;32.10;17.80;;;;;;10455199;28;20811;-75
2022/07/28 14:45:20;;;;;;;2.93;2.63;;;32.10;18.20;;;;;;10451647;28;20350;-70
2022/07/28 14:50:25;;;;;;;2.37;2.27;;;32.20;18.20;;;;;;10447513;28;20220;-70
2022/07/28 14:55:29;;;;;;;2.73;2.53;;;32.30;17.80;;;;;;10448906;28;20232;-70
2022/07/28 15:00:32;;;;;;;2.57;2.40;;;32.30;17.90;;;;;;10448945;28;20220;-70
2022/07/28 15:05:37;;;;;;;2.73;2.53;;;32.30;17.90;;;;;;10452423;28;20247;-70
2022/07/28 15:10:40;;;;;;;2.60;2.40;;;32.30;17.60;;;;;;10454689;28;20231;-75
2022/07/28 15:15:43;;;;;;;2.70;2.40;;;32.40;17.90;;;;;;10450722;28;21068;-75
2022/07/28 15:20:49;;;;;;;2.70;2.50;;;32.40;17.80;;;;;;10452465;28;20240;-75
2022/07/28 15:25:52;;;;;;;2.57;2.37;;;32.50;17.60;;;;;;10451025;28;20229;-75
2022/07/28 15:30:55;;;;;;;2.60;2.40;;;32.50;17.70;;;;;;10453447;28;20314;-74
2022/07/28 15:36:00;;;;;;;2.40;2.20;;;32.50;17.40;;;;;;10436997;28;20226;-75
2022/07/28 15:41:04;;;;;;;2.43;2.30;;;32.50;17.20;;;;;;10439755;28;20809;-75
2022/07/28 15:46:09;;;;;;;2.47;2.37;;;32.50;17.30;;;;;;10441460;28;20232;-70
2022/07/28 15:51:14;;;;;;;3.10;2.90;;;32.70;17.20;;;;;;10441111;28;20932;-69
2022/07/28 15:56:17;;;;;;;2.50;2.37;;;32.70;17.20;;;;;;10437327;28;20229;-69
2022/07/28 16:01:21;;;;;;;2.43;2.30;;;32.80;17.30;;;;;;10438485;28;20236;-70
2022/07/28 16:07:17;;;;;;;2.90;2.60;;;32.80;17.20;;;;;;10436132;28;21246;-70
2022/07/28 16:11:49;;;;;;;2.67;2.47;;;32.90;16.80;;;;;;10438946;28;20235;-70
2022/07/28 16:16:52;;;;;;;2.50;2.40;;;32.90;17.00;;;;;;10441510;28;20704;-69
2022/07/28 16:21:57;;;;;;;3.07;2.60;;;32.90;16.60;;;;;;10440026;28;20229;-70
2022/07/28 16:27:00;;;;;;;2.47;2.30;;;32.90;16.50;;;;;;10437354;28;20226;-71
2022/07/28 16:32:04;;;;;;;2.50;2.30;;;32.90;16.20;;;;;;10437436;28;20223;-70
2022/07/28 16:37:08;;;;;;;2.73;2.57;;;32.90;16.40;;;;;;10442156;28;20232;-70
2022/07/28 16:42:12;;;;;;;2.67;2.47;;;32.90;16.00;;;;;;10449003;28;20311;-70
2022/07/28 16:47:15;;;;;;;2.40;2.27;;;32.90;16.50;;;;;;10451687;28;20950;-70
2022/07/28 16:52:20;;;;;;;2.47;2.37;;;32.90;16.20;;;;;;10454894;28;20231;-75
2022/07/28 16:57:23;;;;;;;2.53;2.43;;;32.90;15.80;;;;;;10465128;28;20231;-75
2022/07/28 17:02:26;;;;;;;2.77;2.57;;;33.00;16.10;;;;;;10458864;28;20224;-75
2022/07/28 17:07:31;;;;;;;2.90;2.50;;;32.90;16.10;;;;;;10460527;28;20837;-75
2022/07/28 17:12:34;;;;;;;2.77;2.57;;;32.90;15.60;;;;;;10466645;28;20232;-70
2022/07/28 17:17:37;;;;;;;3.60;2.40;;;32.90;16.00;;;;;;10455417;28;20806;-70
2022/07/28 17:22:43;;;;;;;3.70;2.57;;;32.90;16.00;;;;;;10442187;28;20229;-70
2022/07/28 17:27:47;;;;;;;2.67;2.47;;;32.80;15.70;;;;;;10447114;28;20256;-70
2022/07/28 17:32:50;;;;;;;2.40;2.20;;;32.80;15.90;;;;;;10440901;28;20225;-70
2022/07/28 17:37:55;;;;;;;2.67;2.47;;;32.80;15.90;;;;;;10443011;28;20629;-70
2022/07/28 17:42:58;;;;;;;2.50;2.40;;;32.80;15.80;;;;;;10443179;28;20520;-71
2022/07/28 17:48:02;;;;;;;2.70;2.50;;;32.80;16.00;;;;;;10445065;28;20240;-71
2022/07/28 17:53:06;;;;;;;2.70;2.50;;;32.70;16.00;;;;;;10446706;28;20913;-70
2022/07/28 17:58:12;;;;;;;2.40;2.30;;;32.70;15.80;;;;;;10437205;28;20225;-70
2022/07/28 18:03:15;;;;;;;2.73;2.40;;;32.60;15.90;;;;;;10441722;28;21044;-70
2022/07/28 18:08:20;;;;;;;2.60;2.40;;;32.50;15.90;;;;;;10447381;28;20232;-70
2022/07/28 18:13:24;;;;;;;2.40;2.20;;;32.40;15.90;;;;;;10447733;28;20229;-70
2022/07/28 18:18:27;;;;;;;2.77;2.10;;;32.30;16.00;;;;;;10453689;28;20275;-71
2022/07/28 18:23:32;;;;;;;2.40;2.30;;;32.20;16.00;;;;;;10455188;28;20231;-70
2022/07/28 18:28:35;;;;;;;4.03;2.40;;;32.10;16.10;;;;;;10457048;28;20231;-70
2022/07/28 18:33:39;;;;;;;2.70;2.40;;;31.90;16.20;;;;;;10456096;28;20220;-70
2022/07/28 18:38:43;;;;;;;2.60;2.40;;;31.80;16.50;;;;;;10452199;28;20247;-70
2022/07/28 18:43:47;;;;;;;2.37;2.17;;;31.70;16.80;;;;;;10435816;28;20239;-70
2022/07/28 18:48:50;;;;;;;2.63;2.20;;;31.60;16.80;;;;;;10466840;28;20236;-70
2022/07/28 18:54:01;;;;;;;2.47;2.13;;;31.50;16.90;;;;;;10462453;28;20224;-70
2022/07/28 18:59:04;;;;;;;2.40;2.30;;;31.30;17.10;;;;;;10461187;28;20243;-71
2022/07/28 19:04:07;;;;;;;3.30;2.40;;;31.20;17.10;;;;;;10466750;28;21292;-70
2022/07/28 19:09:12;;;;;;;3.30;2.73;;;31.00;17.40;;;;;;10463695;28;20220;-71
2022/07/28 19:14:15;;;;;;;3.43;2.60;;;30.80;17.50;;;;;;10466806;28;20224;-74
2022/07/28 19:19:20;;;;;;;2.70;2.50;;;30.70;17.70;;;;;;10472476;28;20297;-73
2022/07/28 19:24:24;;;;;;;2.63;2.43;;;30.40;17.80;;;;;;10466150;28;20246;-74
2022/07/28 19:29:28;;;;;;;2.60;2.40;;;30.20;18.20;;;;;;10459830;28;20705;-74
2022/07/28 19:34:31;;;;;;;3.43;2.20;;;30.00;18.40;;;;;;10470155;28;20227;-72
2022/07/28 19:39:36;;;;;;;2.40;2.20;;;29.80;18.50;;;;;;10468672;28;20228;-74
2022/07/28 19:44:47;;;;;;;3.77;2.23;;;29.60;19.10;;;;;;10466039;28;20223;-74
2022/07/28 19:49:56;;;;;;;2.70;2.47;;;29.50;18.90;;;;;;10466061;28;20311;-74
2022/07/28 19:55:00;;;;;;;3.50;2.33;;;29.40;19.00;;;;;;10465579;28;20243;-70
2022/07/28 20:00:07;;;;;;;4.00;2.57;;;29.30;19.30;;;;;;10465431;28;20619;-70
2022/07/28 20:05:11;;;;;;;2.40;2.30;;;29.20;19.30;;;;;;10449311;28;20223;-70
2022/07/28 20:10:15;;;;;;;2.67;2.47;;;29.10;19.40;;;;;;10444701;28;20258;-71
2022/07/28 20:15:18;;;;;;;3.03;2.30;;;29.10;19.70;;;;;;10456368;28;20220;-70
2022/07/28 20:20:22;;;;;;;2.80;2.50;;;29.00;19.60;;;;;;10452308;28;20236;-70
2022/07/28 20:25:27;;;;;;;2.53;2.40;;;28.90;20.00;;;;;;10453310;28;20235;-70
2022/07/28 20:30:32;;;;;;;2.40;2.30;;;28.80;20.30;;;;;;10452203;28;21003;-70
2022/07/28 20:35:35;;;;;;;2.43;2.23;;;28.70;20.40;;;;;;10448853;28;20231;-73
2022/07/28 20:40:40;;;;;;;2.83;2.63;;;28.60;20.40;;;;;;10443892;28;20879;-73
2022/07/28 20:45:44;;;;;;;2.50;2.40;;;28.50;20.30;;;;;;10406444;28;1186331;-73
2022/07/28 20:50:48;;;;;;;3.23;2.73;;;28.40;20.30;;;;;;10454434;28;20236;-73
2022/07/28 20:55:53;;;;;;;2.90;2.70;;;28.30;20.20;;;;;;10451204;28;20239;-73
2022/07/28 21:00:56;;;;;;;3.13;2.30;;;28.20;21.10;;;;;;10458813;28;20934;-73
2022/07/28 21:05:59;;;;;;;3.00;2.47;;;28.10;20.30;;;;;;10457770;28;20339;-73
2022/07/28 21:11:06;;;;;;;2.43;2.23;;;28.00;20.40;;;;;;10456379;28;20252;-73
2022/07/28 21:16:09;;;;;;;2.77;2.57;;;27.90;20.80;;;;;;10456604;28;20235;-73
2022/07/28 21:21:14;;;;;;;2.70;2.50;;;27.90;20.70;;;;;;10456034;28;20261;-73
2022/07/28 21:26:19;;;;;;;2.70;2.50;;;27.80;21.00;;;;;;10453327;28;21042;-73
2022/07/28 21:31:22;;;;;;;2.60;2.40;;;27.70;21.20;;;;;;10454364;28;20228;-74
2022/07/28 21:36:25;;;;;;;2.93;2.73;;;27.70;21.30;;;;;;10457164;28;20239;-73
2022/07/28 21:41:30;;;;;;;2.63;2.43;;;27.60;21.40;;;;;;10454165;28;20596;-73
2022/07/28 21:46:41;;;;;;;2.60;2.50;;;27.50;21.90;;;;;;10456777;28;20224;-73
2022/07/28 21:51:46;;;;;;;2.70;2.50;;;27.50;21.80;;;;;;10456778;28;21307;-73
2022/07/28 21:56:51;;;;;;;2.77;2.57;;;27.40;22.30;;;;;;10446772;28;20232;-73
2022/07/28 22:01:54;;;;;;;3.53;3.23;;;27.40;22.20;;;;;;10453556;28;20260;-73
2022/07/28 22:06:57;;;;;;;3.23;2.97;;;27.30;22.10;;;;;;10453404;28;20232;-73
2022/07/28 22:12:02;;;;;;;3.20;3.00;;;27.20;22.30;;;;;;10454968;28;20220;-73
2022/07/28 22:17:05;;;;;;;3.50;3.20;;;27.10;22.60;;;;;;10453044;28;20254;-73
2022/07/28 22:22:11;;;;;;;2.73;2.53;;;27.10;23.10;;;;;;10451781;28;20228;-73
2022/07/28 22:27:16;;;;;;;3.03;2.83;;;27.10;22.50;;;;;;10455337;28;20228;-73
2022/07/28 22:32:20;;;;;;;3.00;2.80;;;27.10;23.00;;;;;;10451257;28;20220;-73
2022/07/28 22:37:31;;;;;;;3.30;3.00;;;27.00;23.00;;;;;;10449348;28;20237;-73
2022/07/28 22:42:35;;;;;;;3.30;3.00;;;26.80;23.10;;;;;;10453896;28;20224;-73
2022/07/28 22:47:39;;;;;;;3.60;3.00;;;26.60;23.80;;;;;;10448462;28;20226;-73
2022/07/28 22:52:42;;;;;;;3.13;2.87;;;26.40;23.80;;;;;;10450974;28;20801;-73
2022/07/28 22:57:47;;;;;;;3.47;3.10;;;26.20;23.90;;;;;;10451485;28;20236;-73
2022/07/28 23:02:50;;;;;;;4.27;3.03;;;26.10;24.40;;;;;;10449913;28;20225;-73
2022/07/28 23:07:53;;;;;;;4.13;2.80;;;26.00;24.20;;;;;;10448877;28;20374;-73
2022/07/28 23:13:02;;;;;;;4.07;2.90;;;25.80;24.60;;;;;;10451432;28;20586;-72
2022/07/28 23:18:05;;;;;;;3.40;3.10;;;25.70;25.00;;;;;;10455659;28;20232;-73
2022/07/28 23:23:09;;;;;;;3.37;3.07;;;25.70;25.00;;;;;;10458695;28;20230;-73
2022/07/28 23:28:14;;;;;;;5.33;2.97;;;25.70;25.30;;;;;;10454501;28;20225;-73
2022/07/28 23:33:17;;;;;;;3.63;2.70;;;25.70;26.00;;;;;;10452410;28;20224;-72
2022/07/28 23:38:40;;;;;;;3.10;2.50;;;25.70;25.60;;;;;;10452640;28;20228;-72
2022/07/28 23:43:45;;;;;;;2.77;2.57;;;25.70;25.70;;;;;;10453636;28;20224;-73
2022/07/28 23:48:48;;;;;;;2.77;2.57;;;25.80;26.20;;;;;;10454198;28;20234;-73
2022/07/28 23:53:52;;;;;;;2.67;2.50;;;25.80;25.80;;;;;;10451429;28;20315;-73
2022/07/28 23:59:00;;;;;;;2.73;2.53;;;25.90;26.20;;;;;;10448011;28;20228;-72
